createdAt,value
2024-03-10T00:00:26.185Z,21.33
2024-03-10T00:02:55.731Z,21.32
2024-03-10T00:05:23.236Z,21.33
2024-03-10T00:07:50.344Z,21.31
2024-03-10T00:10:17.148Z,21.33
2024-03-10T00:12:48.820Z,21.31
2024-03-10T00:15:20.770Z,21.31
2024-03-10T00:17:48.299Z,21.32
2024-03-10T00:20:15.323Z,21.31
2024-03-10T00:22:46.115Z,21.30
2024-03-10T00:25:14.712Z,21.31
2024-03-10T00:27:42.206Z,21.29
2024-03-10T00:30:10.685Z,21.31
2024-03-10T00:32:38.339Z,21.29
2024-03-10T00:35:09.989Z,21.29
2024-03-10T00:37:37.163Z,21.28
2024-03-10T00:40:06.506Z,21.29
2024-03-10T00:42:33.282Z,21.27
2024-03-10T00:44:59.868Z,21.27
2024-03-10T00:47:26.679Z,21.27
2024-03-10T00:49:53.301Z,21.28
2024-03-10T00:52:20.136Z,21.28
2024-03-10T00:54:46.793Z,21.27
2024-03-10T00:57:13.439Z,21.26
2024-03-10T00:59:40.008Z,21.26
2024-03-10T01:02:06.954Z,21.26
2024-03-10T01:04:34.406Z,21.26
2024-03-10T01:07:01.238Z,21.26
2024-03-10T01:09:30.446Z,21.25
2024-03-10T01:11:57.254Z,21.25
2024-03-10T01:14:24.067Z,21.26
2024-03-10T01:16:50.856Z,21.24
2024-03-10T01:19:17.428Z,21.24
2024-03-10T01:21:47.563Z,21.24
2024-03-10T01:24:14.723Z,21.20
2024-03-10T01:26:41.351Z,21.22
2024-03-10T01:29:09.671Z,21.24
2024-03-10T01:31:36.509Z,21.24
2024-03-10T01:34:03.430Z,21.23
2024-03-10T01:36:30.618Z,21.23
2024-03-10T01:38:57.557Z,21.21
2024-03-10T01:41:27.431Z,21.17
2024-03-10T01:43:54.673Z,21.21
2024-03-10T01:46:22.973Z,21.22
2024-03-10T01:48:50.608Z,21.22
2024-03-10T01:51:18.137Z,21.21
2024-03-10T01:53:46.660Z,21.20
2024-03-10T01:56:14.649Z,21.20
2024-03-10T01:58:46.492Z,21.20
2024-03-10T02:01:15.407Z,21.21
2024-03-10T02:03:44.332Z,21.15
2024-03-10T02:06:11.546Z,21.20
2024-03-10T02:08:39.280Z,21.19
2024-03-10T02:11:11.055Z,21.19
2024-03-10T02:13:38.996Z,21.18
2024-03-10T02:16:07.235Z,21.19
2024-03-10T02:18:34.502Z,21.17
2024-03-10T02:21:02.051Z,21.18
2024-03-10T02:23:42.512Z,21.18
2024-03-10T02:26:10.832Z,21.18
2024-03-10T02:28:48.241Z,21.16
2024-03-10T02:31:33.833Z,21.17
2024-03-10T02:34:18.941Z,21.15
2024-03-10T02:37:06.337Z,21.16
2024-03-10T02:39:51.833Z,21.13
2024-03-10T02:42:37.015Z,21.13
2024-03-10T02:45:22.587Z,21.12
2024-03-10T02:47:50.444Z,21.12
2024-03-10T02:50:17.179Z,21.11
2024-03-10T02:52:43.914Z,21.12
2024-03-10T02:55:13.150Z,21.12
2024-03-10T02:57:39.920Z,21.11
2024-03-10T03:00:13.678Z,21.10
2024-03-10T03:02:40.323Z,21.10
2024-03-10T03:05:08.813Z,21.09
2024-03-10T03:07:35.650Z,21.09
2024-03-10T03:10:02.316Z,21.08
2024-03-10T03:12:28.988Z,21.08
2024-03-10T03:14:55.585Z,21.08
2024-03-10T03:17:25.278Z,21.09
2024-03-10T03:19:52.140Z,21.07
2024-03-10T03:22:18.860Z,21.06
2024-03-10T03:24:45.502Z,21.05
2024-03-10T03:27:12.146Z,21.05
2024-03-10T03:29:39.045Z,21.05
2024-03-10T03:32:06.783Z,21.04
2024-03-10T03:34:34.670Z,21.03
2024-03-10T03:37:01.324Z,21.03
2024-03-10T03:39:28.022Z,21.03
2024-03-10T03:41:54.906Z,21.04
2024-03-10T03:44:21.769Z,21.03
2024-03-10T03:46:48.454Z,21.03
2024-03-10T03:49:15.128Z,21.02
2024-03-10T03:51:44.051Z,21.01
2024-03-10T03:54:10.865Z,21.01
2024-03-10T03:56:37.470Z,20.99
2024-03-10T03:59:05.091Z,20.86
2024-03-10T04:01:32.189Z,21.00
2024-03-10T04:03:58.889Z,20.99
2024-03-10T04:06:25.553Z,21.00
2024-03-10T04:08:58.230Z,20.99
2024-03-10T04:11:25.985Z,20.99
2024-03-10T04:13:52.642Z,20.98
2024-03-10T04:16:20.509Z,20.98
2024-03-10T04:18:47.276Z,20.97
2024-03-10T04:21:15.306Z,20.97
2024-03-10T04:23:42.178Z,20.96
2024-03-10T04:26:10.490Z,20.96
2024-03-10T04:28:37.700Z,20.94
2024-03-10T04:31:04.503Z,20.95
2024-03-10T04:33:31.151Z,20.96
2024-03-10T04:35:57.795Z,20.96
2024-03-10T04:38:25.018Z,20.94
2024-03-10T04:40:51.801Z,20.94
2024-03-10T04:43:21.391Z,20.95
2024-03-10T04:45:50.101Z,20.95
2024-03-10T04:48:17.315Z,20.94
2024-03-10T04:50:44.330Z,20.94
2024-03-10T04:53:11.499Z,20.93
2024-03-10T04:55:38.486Z,20.93
2024-03-10T04:58:05.036Z,20.92
2024-03-10T05:00:31.712Z,20.91
2024-03-10T05:02:58.712Z,20.93
2024-03-10T05:05:25.668Z,20.91
2024-03-10T05:07:52.920Z,20.92
2024-03-10T05:10:20.776Z,20.91
2024-03-10T05:12:47.548Z,20.91
2024-03-10T05:15:17.053Z,20.90
2024-03-10T05:17:44.277Z,20.89
2024-03-10T05:22:43.346Z,20.60
2024-03-10T05:25:12.339Z,20.87
2024-03-10T05:27:42.365Z,20.86
2024-03-10T05:32:28.608Z,20.87
2024-03-10T05:34:57.869Z,20.85
2024-03-10T05:37:24.592Z,20.85
2024-03-10T05:39:51.334Z,20.85
2024-03-10T05:42:18.238Z,20.85
2024-03-10T05:44:44.880Z,20.85
2024-03-10T05:47:12.534Z,20.85
2024-03-10T05:49:39.245Z,20.85
2024-03-10T05:52:06.236Z,20.84
2024-03-10T05:54:35.153Z,20.80
2024-03-10T05:57:01.814Z,20.85
2024-03-10T06:01:54.808Z,20.65
2024-03-10T06:04:21.461Z,20.83
2024-03-10T06:06:48.029Z,20.84
2024-03-10T06:09:16.160Z,20.83
2024-03-10T06:11:42.834Z,20.84
2024-03-10T06:14:09.675Z,20.84
2024-03-10T06:16:36.309Z,20.85
2024-03-10T06:19:02.945Z,20.83
2024-03-10T06:24:12.938Z,20.84
2024-03-10T06:26:40.145Z,20.82
2024-03-10T06:29:07.763Z,20.84
2024-03-10T06:31:34.422Z,20.86
2024-03-10T06:34:01.156Z,20.87
2024-03-10T06:36:28.422Z,20.87
2024-03-10T06:38:55.024Z,20.91
2024-03-10T06:41:21.734Z,20.92
2024-03-10T06:43:50.845Z,20.95
2024-03-10T06:46:17.640Z,20.96
2024-03-10T06:48:44.230Z,20.98
2024-03-10T06:51:11.937Z,21.00
2024-03-10T06:53:38.770Z,21.01
2024-03-10T06:56:06.959Z,21.02
2024-03-10T06:58:33.604Z,21.03
2024-03-10T07:01:03.813Z,21.04
2024-03-10T07:03:32.071Z,21.01
2024-03-10T07:06:01.598Z,21.06
2024-03-10T07:08:28.719Z,21.07
2024-03-10T07:10:55.391Z,21.09
2024-03-10T07:13:22.086Z,21.09
2024-03-10T07:15:48.953Z,21.10
2024-03-10T07:18:18.217Z,21.11
2024-03-10T07:20:46.612Z,21.11
2024-03-10T07:23:14.491Z,21.10
2024-03-10T07:25:41.400Z,21.12
2024-03-10T07:28:08.163Z,21.13
2024-03-10T07:30:35.420Z,21.13
2024-03-10T07:33:02.914Z,21.14
2024-03-10T07:35:29.732Z,21.07
2024-03-10T07:37:57.000Z,21.15
2024-03-10T07:40:25.089Z,21.15
2024-03-10T07:42:51.805Z,21.16
2024-03-10T07:45:19.192Z,21.17
2024-03-10T07:47:47.796Z,21.18
2024-03-10T07:50:15.907Z,21.18
2024-03-10T07:52:45.240Z,21.20
2024-03-10T07:55:12.166Z,21.16
2024-03-10T07:57:40.821Z,21.21
2024-03-10T08:00:12.269Z,21.18
2024-03-10T08:02:41.247Z,21.23
2024-03-10T08:05:12.150Z,21.24
2024-03-10T08:07:46.252Z,21.25
2024-03-10T08:10:15.435Z,21.27
2024-03-10T08:12:46.513Z,21.28
2024-03-10T08:15:14.734Z,21.30
2024-03-10T08:17:42.827Z,21.30
2024-03-10T08:20:15.249Z,21.32
2024-03-10T08:22:43.781Z,21.34
2024-03-10T08:25:10.876Z,21.35
2024-03-10T08:27:37.954Z,21.37
2024-03-10T08:30:06.060Z,21.38
2024-03-10T08:32:33.118Z,21.39
2024-03-10T08:34:59.808Z,21.40
2024-03-10T08:37:29.169Z,21.41
2024-03-10T08:39:56.013Z,21.43
2024-03-10T08:42:25.883Z,21.45
2024-03-10T08:44:52.604Z,21.47
2024-03-10T08:47:19.290Z,21.49
2024-03-10T08:49:46.052Z,21.51
2024-03-10T08:52:13.607Z,21.53
2024-03-10T08:54:40.362Z,21.55
2024-03-10T08:57:07.127Z,21.58
2024-03-10T08:59:34.066Z,21.60
2024-03-10T09:02:02.897Z,21.62
2024-03-10T09:04:29.680Z,21.64
2024-03-10T09:06:56.288Z,21.66
2024-03-10T09:09:23.601Z,21.67
2024-03-10T09:11:50.503Z,21.66
2024-03-10T09:14:19.674Z,21.72
2024-03-10T09:16:46.504Z,21.73
2024-03-10T09:19:13.247Z,21.72
2024-03-10T09:21:39.903Z,21.73
2024-03-10T09:24:06.795Z,21.74
2024-03-10T09:26:33.520Z,21.74
2024-03-10T09:29:02.288Z,21.74
2024-03-10T09:31:29.471Z,21.72
2024-03-10T09:33:58.380Z,21.74
2024-03-10T09:36:26.022Z,21.73
2024-03-10T09:38:53.426Z,21.73
2024-03-10T09:41:22.203Z,21.72
2024-03-10T09:43:55.337Z,21.73
2024-03-10T09:46:22.967Z,21.71
2024-03-10T09:48:50.664Z,21.71
2024-03-10T09:51:17.365Z,21.72
2024-03-10T09:53:45.618Z,21.71
2024-03-10T09:56:13.946Z,21.71
2024-03-10T09:58:51.742Z,21.71
2024-03-10T10:01:22.276Z,21.72
2024-03-10T10:03:54.381Z,21.72
2024-03-10T10:06:22.039Z,21.71
2024-03-10T10:08:55.935Z,21.72
2024-03-10T10:11:24.763Z,21.71
2024-03-10T10:14:18.176Z,21.72
2024-03-10T10:16:58.650Z,21.72
2024-03-10T10:19:31.341Z,21.72
2024-03-10T10:21:59.395Z,21.73
2024-03-10T10:24:26.328Z,21.74
2024-03-10T10:27:00.316Z,21.75
2024-03-10T10:29:29.033Z,21.75
2024-03-10T10:32:00.999Z,21.76
2024-03-10T10:34:28.131Z,21.77
2024-03-10T10:36:56.588Z,21.78
2024-03-10T10:39:31.308Z,21.79
2024-03-10T10:42:02.018Z,21.81
2024-03-10T10:44:29.718Z,21.83
2024-03-10T10:46:59.540Z,21.84
2024-03-10T10:49:27.079Z,21.85
2024-03-10T10:51:57.826Z,21.88
2024-03-10T10:54:26.106Z,21.85
2024-03-10T10:56:57.334Z,21.92
2024-03-10T10:59:28.502Z,21.93
2024-03-10T11:01:57.527Z,21.94
2024-03-10T11:04:27.923Z,21.95
2024-03-10T11:06:57.050Z,21.97
2024-03-10T11:09:31.841Z,21.92
2024-03-10T11:12:00.051Z,22.00
2024-03-10T11:14:27.996Z,22.01
2024-03-10T11:17:14.371Z,22.04
2024-03-10T11:19:41.658Z,22.05
2024-03-10T11:22:09.442Z,22.06
2024-03-10T11:24:36.650Z,22.08
2024-03-10T11:27:16.198Z,22.12
2024-03-10T11:29:43.280Z,22.12
2024-03-10T11:32:32.363Z,22.14
2024-03-10T11:35:21.418Z,22.15
2024-03-10T11:37:50.743Z,22.18
2024-03-10T11:40:17.958Z,22.19
2024-03-10T11:42:46.529Z,22.18
2024-03-10T11:45:13.521Z,22.21
2024-03-10T11:47:40.721Z,22.26
2024-03-10T11:50:08.121Z,22.27
2024-03-10T11:52:34.791Z,22.30
2024-03-10T11:55:07.802Z,22.32
2024-03-10T11:57:35.057Z,22.35
2024-03-10T12:00:02.347Z,22.23
2024-03-10T12:02:34.058Z,22.35
2024-03-10T12:05:06.776Z,22.37
2024-03-10T12:07:36.105Z,22.41
2024-03-10T12:10:09.787Z,22.42
2024-03-10T12:12:38.438Z,22.45
2024-03-10T12:15:18.925Z,22.49
2024-03-10T12:17:53.171Z,22.51
2024-03-10T12:20:21.975Z,22.50
2024-03-10T12:22:49.650Z,22.51
2024-03-10T12:25:19.691Z,22.50
2024-03-10T12:27:48.970Z,22.53
2024-03-10T12:30:17.924Z,22.54
2024-03-10T12:32:45.650Z,22.57
2024-03-10T12:35:12.625Z,22.58
2024-03-10T12:37:41.680Z,22.59
2024-03-10T12:40:09.658Z,22.57
2024-03-10T12:42:39.599Z,22.60
2024-03-10T12:45:09.425Z,22.62
2024-03-10T12:47:36.506Z,22.62
2024-03-10T12:50:08.729Z,22.61
2024-03-10T12:52:36.233Z,22.61
2024-03-10T12:55:04.302Z,22.67
2024-03-10T12:57:30.971Z,22.68
2024-03-10T12:59:57.563Z,22.71
2024-03-10T13:02:24.437Z,22.72
2024-03-10T13:04:51.119Z,22.74
2024-03-10T13:07:17.996Z,22.76
2024-03-10T13:09:44.600Z,22.77
2024-03-10T13:12:11.940Z,22.78
2024-03-10T13:14:38.781Z,22.79
2024-03-10T13:17:05.533Z,22.81
2024-03-10T13:19:34.136Z,22.82
2024-03-10T13:22:00.960Z,22.82
2024-03-10T13:24:27.609Z,22.84
2024-03-10T13:26:54.689Z,22.85
2024-03-10T13:29:21.490Z,22.86
2024-03-10T13:31:48.115Z,22.87
2024-03-10T13:34:14.839Z,22.88
2024-03-10T13:36:41.598Z,22.88
2024-03-10T13:39:11.394Z,22.88
2024-03-10T13:41:40.002Z,22.89
2024-03-10T13:44:06.761Z,22.90
2024-03-10T13:46:33.763Z,22.90
2024-03-10T13:49:00.772Z,22.91
2024-03-10T13:51:27.420Z,22.92
2024-03-10T13:53:54.079Z,22.91
2024-03-10T13:56:20.768Z,22.76
2024-03-10T13:58:47.480Z,22.91
2024-03-10T14:01:17.056Z,22.92
2024-03-10T14:03:44.206Z,22.91
2024-03-10T14:06:10.944Z,22.92
2024-03-10T14:08:38.301Z,22.89
2024-03-10T14:11:05.320Z,22.77
2024-03-10T14:13:31.916Z,22.91
2024-03-10T14:15:59.249Z,22.91
2024-03-10T14:18:25.989Z,22.93
2024-03-10T14:20:52.850Z,22.93
2024-03-10T14:23:21.456Z,22.94
2024-03-10T14:25:48.127Z,22.95
2024-03-10T14:28:16.294Z,22.94
2024-03-10T14:30:43.095Z,22.94
2024-03-10T14:33:09.941Z,22.95
2024-03-10T14:35:36.647Z,22.93
2024-03-10T14:38:05.541Z,22.95
2024-03-10T14:40:34.412Z,22.95
2024-03-10T14:43:01.243Z,22.95
2024-03-10T14:45:30.388Z,22.95
2024-03-10T14:47:57.234Z,22.96
2024-03-10T14:50:26.095Z,22.93
2024-03-10T14:52:55.591Z,22.90
2024-03-10T14:55:22.865Z,22.92
2024-03-10T14:57:50.187Z,22.96
2024-03-10T15:00:37.354Z,22.97
2024-03-10T15:03:12.152Z,22.95
2024-03-10T15:05:43.282Z,22.94
2024-03-10T15:08:12.531Z,22.95
2024-03-10T15:10:42.255Z,22.94
2024-03-10T15:13:10.247Z,22.94
2024-03-10T15:15:38.203Z,22.94
2024-03-10T15:18:06.825Z,22.93
2024-03-10T15:20:34.472Z,22.93
2024-03-10T15:23:02.614Z,22.92
2024-03-10T15:25:35.268Z,22.93
2024-03-10T15:28:02.412Z,22.92
2024-03-10T15:30:29.168Z,22.92
2024-03-10T15:32:55.858Z,22.91
2024-03-10T15:35:22.907Z,22.89
2024-03-10T15:37:49.931Z,22.90
2024-03-10T15:40:20.277Z,22.89
2024-03-10T15:42:48.176Z,22.88
2024-03-10T15:45:20.145Z,22.88
2024-03-10T15:47:49.896Z,22.87
2024-03-10T15:50:19.865Z,22.87
2024-03-10T15:52:48.904Z,22.86
2024-03-10T15:55:18.022Z,22.85
2024-03-10T15:57:47.216Z,22.84
2024-03-10T16:00:21.567Z,22.85
2024-03-10T16:02:53.552Z,22.65
2024-03-10T16:05:48.786Z,22.82
2024-03-10T16:08:19.263Z,22.82
2024-03-10T16:10:47.595Z,22.81
2024-03-10T16:13:37.502Z,22.63
2024-03-10T16:16:06.755Z,22.79
2024-03-10T16:18:38.371Z,22.81
2024-03-10T16:21:09.798Z,22.80
2024-03-10T16:23:36.606Z,22.80
2024-03-10T16:26:04.637Z,22.79
2024-03-10T16:28:31.266Z,22.80
2024-03-10T16:30:57.859Z,22.79
2024-03-10T16:33:24.565Z,22.80
2024-03-10T16:35:51.297Z,22.74
2024-03-10T16:38:17.990Z,22.78
2024-03-10T16:40:44.706Z,22.76
2024-03-10T16:43:11.306Z,22.74
2024-03-10T16:45:39.465Z,22.73
2024-03-10T16:48:06.813Z,22.71
2024-03-10T16:50:34.608Z,22.70
2024-03-10T16:53:07.184Z,22.69
2024-03-10T16:55:34.093Z,22.67
2024-03-10T16:58:07.981Z,22.67
2024-03-10T17:00:36.359Z,22.66
2024-03-10T17:03:05.797Z,22.65
2024-03-10T17:05:35.955Z,22.64
2024-03-10T17:08:05.427Z,22.64
2024-03-10T17:10:32.602Z,22.61
2024-03-10T17:13:02.084Z,22.58
2024-03-10T17:15:29.722Z,22.62
2024-03-10T17:17:56.647Z,22.63
2024-03-10T17:20:24.993Z,22.62
2024-03-10T17:22:52.345Z,22.62
2024-03-10T17:25:18.966Z,22.62
2024-03-10T17:27:45.703Z,22.62
2024-03-10T17:30:17.232Z,22.63
2024-03-10T17:32:51.663Z,22.62
2024-03-10T17:35:20.745Z,22.63
2024-03-10T17:37:47.405Z,22.62
2024-03-10T17:40:15.281Z,22.64
2024-03-10T17:42:42.561Z,22.58
2024-03-10T17:45:12.296Z,22.64
2024-03-10T17:47:39.665Z,22.63
2024-03-10T17:50:08.117Z,22.63
2024-03-10T17:52:35.134Z,22.65
2024-03-10T17:55:02.193Z,22.66
2024-03-10T17:57:29.129Z,22.67
2024-03-10T17:59:55.780Z,22.67
2024-03-10T18:02:23.665Z,22.67
2024-03-10T18:04:50.268Z,22.68
2024-03-10T18:07:17.460Z,22.68
2024-03-10T18:09:44.145Z,22.68
2024-03-10T18:12:11.754Z,22.71
2024-03-10T18:14:38.441Z,22.72
2024-03-10T18:17:06.728Z,22.73
2024-03-10T18:19:33.537Z,22.73
2024-03-10T18:22:00.422Z,22.74
2024-03-10T18:24:27.056Z,22.74
2024-03-10T18:26:53.722Z,22.74
2024-03-10T18:29:22.227Z,22.73
2024-03-10T18:31:50.591Z,22.74
2024-03-10T18:34:17.407Z,22.74
2024-03-10T18:36:44.229Z,22.71
2024-03-10T18:39:11.880Z,22.70
2024-03-10T18:41:38.826Z,22.73
2024-03-10T18:44:07.667Z,22.72
2024-03-10T18:49:05.763Z,22.72
2024-03-10T18:51:33.105Z,22.72
2024-03-10T18:53:59.870Z,22.50
2024-03-10T18:56:28.493Z,22.72
2024-03-10T18:58:56.805Z,22.60
2024-03-10T19:01:24.030Z,22.73
2024-03-10T19:03:51.511Z,22.73
2024-03-10T19:06:19.186Z,22.73
2024-03-10T19:08:46.154Z,22.73
2024-03-10T19:11:13.353Z,22.81
2024-03-10T19:13:41.422Z,22.83
2024-03-10T19:16:10.465Z,22.82
2024-03-10T19:18:38.098Z,22.80
2024-03-10T19:21:06.890Z,22.82
2024-03-10T19:23:33.866Z,22.82
2024-03-10T19:26:04.680Z,22.82
2024-03-10T19:28:32.278Z,22.83
2024-03-10T19:31:01.332Z,22.83
2024-03-10T19:33:28.412Z,22.86
2024-03-10T19:35:56.394Z,22.85
2024-03-10T19:38:23.487Z,22.84
2024-03-10T19:40:51.509Z,22.85
2024-03-10T19:45:36.851Z,22.85
2024-03-10T19:48:03.741Z,22.84
2024-03-10T19:50:30.416Z,22.83
2024-03-10T19:52:57.127Z,22.84
2024-03-10T19:55:23.887Z,22.85
2024-03-10T19:57:50.597Z,22.86
2024-03-10T20:00:18.204Z,22.88
2024-03-10T20:02:47.062Z,22.89
2024-03-10T20:05:15.401Z,22.91
2024-03-10T20:07:52.491Z,22.89
2024-03-10T20:10:21.355Z,22.91
2024-03-10T20:12:50.920Z,22.91
2024-03-10T20:15:18.797Z,22.93
2024-03-10T20:17:49.510Z,22.92
2024-03-10T20:20:23.586Z,22.74
2024-03-10T20:22:55.817Z,22.93
2024-03-10T20:25:26.626Z,22.94
2024-03-10T20:27:54.599Z,22.93
2024-03-10T20:30:21.203Z,22.94
2024-03-10T20:32:48.205Z,22.92
2024-03-10T20:35:15.955Z,22.91
2024-03-10T20:37:44.617Z,22.91
2024-03-10T20:40:16.154Z,22.86
2024-03-10T20:42:44.833Z,22.89
2024-03-10T20:45:11.648Z,22.89
2024-03-10T20:47:40.020Z,22.88
2024-03-10T20:50:08.441Z,22.87
2024-03-10T20:52:35.600Z,22.88
2024-03-10T20:55:03.141Z,22.88
2024-03-10T20:57:29.981Z,22.87
2024-03-10T20:59:57.290Z,22.87
2024-03-10T21:02:24.922Z,22.87
2024-03-10T21:04:52.134Z,22.87
2024-03-10T21:07:18.914Z,22.87
2024-03-10T21:09:45.800Z,22.88
2024-03-10T21:12:12.639Z,22.88
2024-03-10T21:14:39.385Z,22.87
2024-03-10T21:17:06.796Z,22.88
2024-03-10T21:19:34.221Z,22.86
2024-03-10T21:22:01.084Z,22.76
2024-03-10T21:24:27.843Z,22.87
2024-03-10T21:26:54.487Z,22.87
2024-03-10T21:29:23.016Z,22.86
2024-03-10T21:31:49.808Z,22.86
2024-03-10T21:34:16.502Z,22.86
2024-03-10T21:36:44.024Z,22.86
2024-03-10T21:39:12.144Z,22.85
2024-03-10T21:41:39.213Z,22.84
2024-03-10T21:44:07.122Z,22.86
2024-03-10T21:46:33.788Z,22.85
2024-03-10T21:49:01.663Z,22.85
2024-03-10T21:51:28.408Z,22.84
2024-03-10T21:53:55.053Z,22.85
2024-03-10T21:56:22.267Z,22.84
2024-03-10T21:58:48.822Z,22.85
2024-03-10T22:01:17.700Z,22.85
2024-03-10T22:03:44.708Z,22.84
2024-03-10T22:06:11.360Z,22.85
2024-03-10T22:08:38.086Z,22.69
2024-03-10T22:11:04.830Z,22.84
2024-03-10T22:13:31.526Z,22.84
2024-03-10T22:15:58.350Z,22.81
2024-03-10T22:18:27.674Z,22.83
2024-03-10T22:20:55.837Z,22.83
2024-03-10T22:23:22.553Z,22.83
2024-03-10T22:25:49.375Z,22.79
2024-03-10T22:28:15.921Z,22.83
2024-03-10T22:30:43.139Z,22.66
2024-03-10T22:33:09.791Z,22.82
2024-03-10T22:35:36.427Z,22.81
2024-03-10T22:38:03.236Z,22.82
2024-03-10T22:40:32.015Z,22.82
2024-03-10T22:43:01.285Z,22.79
2024-03-10T22:45:31.560Z,22.81
2024-03-10T22:48:01.256Z,22.81
2024-03-10T22:50:28.500Z,22.81
2024-03-10T22:52:55.972Z,22.80
2024-03-10T22:55:24.007Z,22.80
2024-03-10T22:57:50.867Z,22.80
2024-03-10T23:00:20.877Z,22.81
2024-03-10T23:02:48.392Z,22.80
2024-03-10T23:05:19.577Z,22.79
2024-03-10T23:07:46.519Z,22.79
2024-03-10T23:10:13.213Z,22.79
2024-03-10T23:12:41.055Z,22.79
2024-03-10T23:15:08.638Z,22.77
2024-03-10T23:17:36.360Z,22.78
2024-03-10T23:20:08.027Z,22.75
2024-03-10T23:22:35.068Z,22.78
2024-03-10T23:25:05.462Z,22.76
2024-03-10T23:27:33.513Z,22.77
2024-03-10T23:30:01.766Z,22.77
2024-03-10T23:32:31.632Z,22.77
2024-03-10T23:34:59.014Z,22.76
2024-03-10T23:37:27.472Z,22.76
2024-03-10T23:39:54.168Z,22.76
2024-03-10T23:42:23.426Z,22.75
2024-03-10T23:45:13.482Z,22.75
2024-03-10T23:47:41.461Z,22.73
2024-03-10T23:50:14.205Z,22.74
2024-03-10T23:52:43.513Z,22.73
2024-03-10T23:55:11.220Z,22.58
2024-03-10T23:57:39.080Z,22.74
